Terminal Aerodrome Forecast
Issued by NWS

Home | Current Version | Previous Version | Text Only | Print | Product List | Glossary On
Versions: 1 2 3 4 5 6 7 8 9 10 11 12 13 14 15 16
000
FTUS43 KICT 230700 AAA
TAFCNU
TAF AMD
KCNU 230744Z 2308/2406 19008KT P6SM VCSH SCT030 BKN060
      TEMPO 2308/2312 5SM SHRA BKN030
     FM231200 19007KT 6SM BR OVC015
     FM231800 18011KT P6SM BKN035=

USA.gov is the U.S. government's official web portal to all federal, state and local government web resources and services.